Fayetteville Regional Grannis Field
KFAY : now visible

Airfield :











YOU CAN JOIN US ON...

 
LOGIN :

Register | Disclaimer

   EN    FR    IT 

 









Legend :    VFR   Marginal VFR   IFR   Intensive IFR   Very Intensive IFR
Visi :
Ceiling :
>= 8 km
>= 3000ft
5 to 8 km
1000 to 3000 ft
1500m to 5 km
500 to 1000 ft
800 to 1500m
200 to 500 ft
< 800m
< 200 ft
Symbols :   Thunderstorms  Fog  Heavy snow  Heavy precipitations  Wind > 20 kt






- Airport Elevation : 189 ft
- IATA code : FAY


KFAY - Fayetteville Regional Grannis Field

CURRENT METAR :
  • 080653Z 02005KT 10SM CLR 01/M02 A3043 RMK AO2 SLP298 T00111022

EXPIRED METARs :
  • 080553Z 05005KT 10SM CLR 02/M02 A3042 RMK AO2 SLP295 T00221017 10078 20011 50006
  • 080453Z 04006KT 10SM CLR 03/M02 A3042 RMK AO2 SLP296 T00281017 401330022

TAF KFAY
Valid from the 08 at 06:00 until the 09 at 06:00 UTC


080540Z 0806/0906 04004KT P6SM SCT250
FM082100 04005KT P6SM BKN020
FM090000 03005KT 3SM -RA OVC015



MET'MAP, your aeronautical weather chart ! - Copyright ORBIFLY December 2007 - Disclaimer

ORBIFLY MET'MAP TEAM :

Programming & Development : Alexandra Zaïnal
Concept & original design : Baudouin d'Aumeries
Assistance for programming : Marc-Olivier Méhu
Technical & hardware support : Manuel Goepfert

Contact : metmap@orbifly.com




SOURCES & CREDITS :

   NOAA       Earth
Advisory